Arcadia, California
Current Conditions -  °F | °C
As of 4:45 PM on Saturday 25 Oct 2014 (Local Time) from KEMT Reporting Station
Clear Clear  
Wind Chill: 77°   Ceiling: Unl
Heat Index: 78°   Visibility: 10mi
Dew Point: 50°   Wind: 8mph
Humidity: 39%   Direction: 200°SSW
Pressure: 30"   Gusts: NA
Location:  34.14°N, 118.03°W
Report Text: KEMT 252345Z 20007KT 10SM CLR 25/10 A3000
Loading
Personal Weather Stations






























Interactive Weather Map
Tropical Storm Tracking
New forecast layout! Learn more

10-Day Weather Forecast

Advertisements
Track Severe Weather on mobile